Time;durP1;ratioP1;P1;durP2;ratioP2;P2;SDS_P1;SDS_P2;PMS_P1;PMS_P2;Temp;Humidity;BMP_temperature;BMP_pressure;BME280_temperature;BME280_humidity;BME280_pressure;Samples;Min_cycle;Max_cycle;Signal;HPM_P1;HPM_P2
2022/03/10 00:02:25;;;;;;;19.27;12.23;;;;;;;;;;4932300;29;20425;-82
2022/03/10 00:04:51;;;;;;;16.85;11.15;;;;;;;;;;4935373;28;20449;-82
2022/03/10 00:07:17;;;;;;;18.63;12.10;;;;;;;;;;4935820;29;20831;-82
2022/03/10 00:09:44;;;;;;;18.60;11.38;;;;;;;;;;4913823;29;20735;-83
2022/03/10 00:12:10;;;;;;;20.00;11.88;;;;;;;;;;4934696;29;20409;-83
2022/03/10 00:14:36;;;;;;;19.02;12.40;;;;;;;;;;4918531;29;20873;-82
2022/03/10 00:17:02;;;;;;;17.83;12.18;;;;;;;;;;4934289;29;20455;-83
2022/03/10 00:19:28;;;;;;;16.10;11.98;;;;;;;;;;4915902;29;20424;-83
2022/03/10 00:21:54;;;;;;;17.80;12.32;;;;;;;;;;4930156;29;21020;-82
2022/03/10 00:24:20;;;;;;;19.30;12.95;;;;;;;;;;4936176;29;20430;-82
2022/03/10 00:26:46;;;;;;;19.38;12.63;;;;;;;;;;4929715;29;20421;-82
2022/03/10 00:29:13;;;;;;;19.95;12.45;;;;;;;;;;4919931;29;20445;-83
2022/03/10 00:31:40;;;;;;;19.48;13.25;;;;;;;;;;4935348;29;20818;-83
2022/03/10 00:34:06;;;;;;;22.13;13.43;;;;;;;;;;4935084;28;20441;-82
2022/03/10 00:36:32;;;;;;;22.30;14.15;;;;;;;;;;4935614;28;20421;-82
2022/03/10 00:38:58;;;;;;;19.47;13.73;;;;;;;;;;4934720;29;20468;-77
2022/03/10 00:41:24;;;;;;;20.52;13.48;;;;;;;;;;4900704;28;20460;-78
2022/03/10 00:43:50;;;;;;;21.77;13.88;;;;;;;;;;4895723;29;20461;-78
2022/03/10 00:46:16;;;;;;;21.02;14.27;;;;;;;;;;4951364;28;20415;-78
2022/03/10 00:48:43;;;;;;;19.50;13.10;;;;;;;;;;4919366;29;20449;-78
2022/03/10 00:51:09;;;;;;;20.25;14.05;;;;;;;;;;4919751;29;20473;-78
2022/03/10 00:53:35;;;;;;;17.95;14.02;;;;;;;;;;4933881;29;20448;-77
2022/03/10 00:56:01;;;;;;;19.40;13.60;;;;;;;;;;4918634;29;20558;-78
2022/03/10 00:58:27;;;;;;;19.65;13.30;;;;;;;;;;4935448;29;20422;-78
2022/03/10 01:00:53;;;;;;;20.58;13.88;;;;;;;;;;4923376;29;20455;-78
2022/03/10 01:03:20;;;;;;;19.73;12.38;;;;;;;;;;4914880;28;20465;-77
2022/03/10 01:05:46;;;;;;;20.45;12.73;;;;;;;;;;4917676;28;20618;-78
2022/03/10 01:08:13;;;;;;;19.73;12.68;;;;;;;;;;4903134;29;20767;-78
2022/03/10 01:10:39;;;;;;;18.67;12.45;;;;;;;;;;4934434;28;20465;-77
2022/03/10 01:13:12;;;;;;;19.55;12.45;;;3.10;99.90;;;;;;4930061;29;20418;-77
2022/03/10 01:15:38;;;;;;;20.52;12.40;;;;;;;;;;4934829;28;20421;-78
2022/03/10 01:18:05;;;;;;;19.42;12.45;;;;;;;;;;4936135;29;20473;-78
2022/03/10 01:20:31;;;;;;;17.23;12.43;;;;;;;;;;4936594;29;20410;-78
2022/03/10 01:22:57;;;;;;;18.98;12.38;;;;;;;;;;4937666;28;20421;-78
2022/03/10 01:25:23;;;;;;;19.73;11.98;;;;;;;;;;4922480;29;20941;-78
2022/03/10 01:27:49;;;;;;;18.65;11.88;;;;;;;;;;4938953;29;20402;-78
2022/03/10 01:30:15;;;;;;;18.55;12.23;;;;;;;;;;4930497;29;20492;-78
2022/03/10 01:32:41;;;;;;;17.65;12.10;;;;;;;;;;4936691;28;20418;-77
2022/03/10 01:35:08;;;;;;;18.60;12.07;;;;;;;;;;4920645;29;20437;-77
2022/03/10 01:37:37;;;;;;;20.13;12.25;;;;;;;;;;4921484;29;20508;-78
2022/03/10 01:40:07;;;;;;;17.17;12.27;;;;;;;;;;4926332;29;20421;-78
2022/03/10 01:42:33;;;;;;;18.52;12.70;;;;;;;;;;4937912;28;20418;-78
2022/03/10 01:45:00;;;;;;;19.23;12.65;;;;;;;;;;4937406;29;20437;-78
2022/03/10 01:47:26;;;;;;;21.75;13.07;;;;;;;;;;4922784;28;20414;-77
2022/03/10 01:49:52;;;;;;;19.65;12.73;;;;;;;;;;4929405;29;20449;-77
2022/03/10 01:52:19;;;;;;;19.07;12.80;;;;;;;;;;4936522;29;20414;-77
2022/03/10 01:54:45;;;;;;;20.33;12.93;;;;;;;;;;4910063;29;20419;-77
2022/03/10 01:57:12;;;;;;;19.60;12.68;;;;;;;;;;4934253;29;20903;-77
2022/03/10 01:59:41;;;;;;;19.77;12.87;;;;;;;;;;4943348;28;20422;-78
2022/03/10 02:02:07;;;;;;;19.50;12.70;;;;;;;;;;4942179;28;20443;-78
2022/03/10 02:04:34;;;;;;;19.42;12.57;;;;;;;;;;4940681;29;20465;-77
2022/03/10 02:07:04;;;;;;;19.13;12.53;;;;;;;;;;4906296;28;20483;-77
2022/03/10 02:12:15;;;;;;;20.15;13.13;;;;;;;;;;4953530;28;20504;-77
2022/03/10 02:17:27;;;;;;;18.30;12.63;;;;;;;;;;4940393;29;20830;-77
2022/03/10 02:19:59;;;;;;;22.48;13.05;;;;;;;;;;4936651;29;20422;-77
2022/03/10 02:22:26;;;;;;;22.40;12.88;;;2.60;99.90;;;;;;4937127;28;20409;-77
2022/03/10 02:24:53;;;;;;;19.35;12.70;;;;;;;;;;4915799;29;20431;-77
2022/03/10 02:27:24;;;;;;;18.00;12.40;;;2.50;99.90;;;;;;4935416;29;20414;-77
2022/03/10 02:29:53;;;;;;;20.20;13.27;;;;;;;;;;4920266;28;20410;-77
2022/03/10 02:32:20;;;;;;;21.30;13.68;;;;;;;;;;4937639;29;20755;-77
2022/03/10 02:34:47;;;;;;;20.33;13.10;;;;;;;;;;4925807;29;20778;-78
2022/03/10 02:37:14;;;;;;;17.75;12.20;;;;;;;;;;4920578;28;20885;-78
2022/03/10 02:39:40;;;;;;;20.00;12.85;;;;;;;;;;4934635;28;20868;-78
2022/03/10 02:42:07;;;;;;;18.80;12.68;;;;;;;;;;4915335;29;20411;-78
2022/03/10 02:44:33;;;;;;;19.48;12.73;;;;;;;;;;4908397;29;20572;-78
2022/03/10 02:46:59;;;;;;;19.08;13.00;;;;;;;;;;4936736;29;20448;-78
2022/03/10 02:49:26;;;;;;;19.10;12.38;;;;;;;;;;4919038;28;20449;-78
2022/03/10 02:51:52;;;;;;;19.60;12.55;;;;;;;;;;4921059;29;20496;-77
2022/03/10 02:54:18;;;;;;;19.80;12.68;;;;;;;;;;4920422;29;20418;-78
2022/03/10 02:56:45;;;;;;;22.80;13.70;;;;;;;;;;4932760;29;20450;-77
2022/03/10 02:59:11;;;;;;;19.73;12.98;;;;;;;;;;4920001;29;20775;-78
2022/03/10 03:01:37;;;;;;;20.08;13.40;;;;;;;;;;4920454;28;20421;-77
2022/03/10 03:04:03;;;;;;;19.20;13.20;;;;;;;;;;4943362;29;20526;-77
2022/03/10 03:06:29;;;;;;;20.30;12.90;;;;;;;;;;4918850;29;20409;-77
2022/03/10 03:08:56;;;;;;;19.07;13.50;;;;;;;;;;4935087;29;20497;-77
2022/03/10 03:11:22;;;;;;;20.10;13.20;;;;;;;;;;4932485;29;20419;-77
2022/03/10 03:13:48;;;;;;;17.63;12.55;;;;;;;;;;4915423;29;20908;-77
2022/03/10 03:16:14;;;;;;;19.63;13.48;;;;;;;;;;4917883;29;20420;-77
2022/03/10 03:18:40;;;;;;;22.25;13.40;;;;;;;;;;4936596;28;20441;-77
2022/03/10 03:21:06;;;;;;;20.17;13.70;;;;;;;;;;4936128;29;20417;-77
2022/03/10 03:23:32;;;;;;;20.10;13.87;;;;;;;;;;4935813;29;20500;-77
2022/03/10 03:25:58;;;;;;;19.10;12.80;;;;;;;;;;4936003;29;20422;-77
2022/03/10 03:28:24;;;;;;;21.13;13.15;;;;;;;;;;4936426;29;20413;-77
2022/03/10 03:30:51;;;;;;;21.45;13.25;;;;;;;;;;4935427;29;20905;-77
2022/03/10 03:33:17;;;;;;;20.40;13.60;;;;;;;;;;4935727;28;20431;-77
2022/03/10 03:35:43;;;;;;;19.73;12.55;;;;;;;;;;4919253;29;20418;-77
2022/03/10 03:38:11;;;;;;;22.35;13.55;;;;;;;;;;4930261;29;20412;-77
2022/03/10 03:40:37;;;;;;;20.25;13.95;;;;;;;;;;4916112;29;20767;-78
2022/03/10 03:43:03;;;;;;;20.23;13.30;;;;;;;;;;4916833;29;20417;-78
2022/03/10 03:45:29;;;;;;;18.90;13.10;;;;;;;;;;4934055;29;20436;-78
2022/03/10 03:47:55;;;;;;;19.67;13.40;;;;;;;;;;4935855;28;20881;-77
2022/03/10 03:50:22;;;;;;;23.58;13.93;;;;;;;;;;4924512;29;20944;-78
2022/03/10 03:52:48;;;;;;;19.70;13.55;;;;;;;;;;4919024;29;20457;-77
2022/03/10 03:55:14;;;;;;;24.90;16.50;;;;;;;;;;4903954;29;20421;-78
2022/03/10 03:57:40;;;;;;;21.27;13.95;;;;;;;;;;4903024;29;20425;-78
2022/03/10 04:00:07;;;;;;;19.45;13.50;;;;;;;;;;4929309;29;20498;-78
2022/03/10 04:02:33;;;;;;;21.53;13.83;;;;;;;;;;4936021;29;20546;-78
2022/03/10 04:04:59;;;;;;;21.63;13.68;;;;;;;;;;4903015;29;20452;-78
2022/03/10 04:07:25;;;;;;;20.30;13.73;;;;;;;;;;4919463;28;20413;-77
2022/03/10 04:09:52;;;;;;;21.52;13.50;;;;;;;;;;4935110;29;20425;-78
2022/03/10 04:12:18;;;;;;;20.40;13.20;;;;;;;;;;4916092;29;20434;-77
2022/03/10 04:14:44;;;;;;;20.17;13.40;;;;;;;;;;4894089;29;20415;-78
2022/03/10 04:17:10;;;;;;;20.67;13.40;;;;;;;;;;4910534;29;20477;-78
2022/03/10 04:19:36;;;;;;;20.40;13.63;;;;;;;;;;4918023;29;20457;-78
2022/03/10 04:22:03;;;;;;;22.85;13.68;;;;;;;;;;4934565;29;20460;-78
2022/03/10 04:24:29;;;;;;;23.17;13.60;;;;;;;;;;4934377;28;20449;-77
2022/03/10 04:26:56;;;;;;;20.95;13.98;;;;;;;;;;4920144;28;20417;-77
2022/03/10 04:29:22;;;;;;;21.45;13.65;;;;;;;;;;4935360;28;20422;-77
2022/03/10 04:31:48;;;;;;;20.05;13.93;;;;;;;;;;4919935;29;20436;-77
2022/03/10 04:34:14;;;;;;;20.70;13.27;;;;;;;;;;4931809;29;20474;-77
2022/03/10 04:36:40;;;;;;;19.07;13.63;;;;;;;;;;4927416;29;20418;-77
2022/03/10 04:39:06;;;;;;;21.40;13.38;;;;;;;;;;4919807;29;20418;-77
2022/03/10 04:41:34;;;;;;;21.98;14.55;;;;;;;;;;4926998;29;20454;-78
2022/03/10 04:44:00;;;;;;;21.23;14.65;;;;;;;;;;4931004;29;20429;-78
2022/03/10 04:46:26;;;;;;;20.02;14.00;;;;;;;;;;4928121;29;20498;-78
2022/03/10 04:48:52;;;;;;;21.95;14.55;;;;;;;;;;4903420;29;21068;-77
2022/03/10 04:51:19;;;;;;;20.77;14.07;;;;;;;;;;4917181;28;20409;-77
2022/03/10 04:53:45;;;;;;;20.23;14.63;;;;;;;;;;4938557;29;20416;-77
2022/03/10 04:56:11;;;;;;;21.80;14.82;;;;;;;;;;4932332;29;20413;-77
2022/03/10 04:58:37;;;;;;;24.63;15.55;;;;;;;;;;4923392;29;20410;-77
2022/03/10 05:01:03;;;;;;;22.52;14.77;;;;;;;;;;4923209;29;20428;-77
2022/03/10 05:03:29;;;;;;;21.60;14.82;;;;;;;;;;4938631;29;20468;-77
2022/03/10 05:05:55;;;;;;;22.90;14.45;;;;;;;;;;4938173;29;20413;-77
2022/03/10 05:08:21;;;;;;;20.02;13.68;;;;;;;;;;4938218;29;20456;-77
2022/03/10 05:10:47;;;;;;;20.33;13.98;;;;;;;;;;4938954;29;20758;-77
2022/03/10 05:13:13;;;;;;;20.30;13.10;;;;;;;;;;4922925;29;20441;-76
2022/03/10 05:15:40;;;;;;;19.10;12.50;;;;;;;;;;4934719;29;20411;-77
2022/03/10 05:18:06;;;;;;;22.58;13.45;;;;;;;;;;4937939;29;20810;-76
2022/03/10 05:20:32;;;;;;;19.60;13.50;;;;;;;;;;4938150;29;20485;-78
2022/03/10 05:22:59;;;;;;;21.23;13.73;;;;;;;;;;4921190;29;20898;-78
2022/03/10 05:25:26;;;;;;;22.23;13.85;;;;;;;;;;4919668;29;20491;-78
2022/03/10 05:27:52;;;;;;;20.65;13.35;;;;;;;;;;4921652;29;20411;-78
2022/03/10 05:30:19;;;;;;;20.50;13.48;;;;;;;;;;4938435;29;20410;-78
2022/03/10 05:32:46;;;;;;;21.15;14.05;;;;;;;;;;4907263;29;20765;-78
2022/03/10 05:35:16;;;;;;;23.83;13.38;;;;;;;;;;4937457;29;20425;-78
2022/03/10 05:37:43;;;;;;;20.95;14.57;;;;;;;;;;4921350;29;20433;-78
2022/03/10 05:40:10;;;;;;;21.58;14.15;;;;;;;;;;4922849;29;20414;-78
2022/03/10 05:42:40;;;;;;;22.40;14.73;;;;;;;;;;4909305;28;20431;-78
2022/03/10 05:45:07;;;;;;;24.05;14.05;;;;;;;;;;4942837;29;20430;-78
2022/03/10 05:47:35;;;;;;;22.10;14.00;;;;;;;;;;4919115;29;20566;-79
2022/03/10 05:50:01;;;;;;;22.63;13.82;;;;;;;;;;4946787;29;20413;-79
2022/03/10 05:52:27;;;;;;;23.40;14.05;;;;;;;;;;4921121;29;20473;-79
2022/03/10 05:54:53;;;;;;;23.20;14.68;;;;;;;;;;4912283;28;20932;-79
2022/03/10 05:57:19;;;;;;;23.98;16.45;;;;;;;;;;4937129;29;20913;-78
2022/03/10 05:59:46;;;;;;;25.02;14.90;;;;;;;;;;4932294;29;20423;-78
2022/03/10 06:02:12;;;;;;;20.98;14.60;;;;;;;;;;4919628;29;20420;-79
2022/03/10 06:04:38;;;;;;;20.60;13.87;;;;;;;;;;4935820;29;20964;-78
2022/03/10 06:07:04;;;;;;;22.48;14.32;;;;;;;;;;4921039;29;20421;-78
2022/03/10 06:09:30;;;;;;;20.38;13.75;;;;;;;;;;4937587;29;20414;-80
2022/03/10 06:11:56;;;;;;;21.92;13.85;;;;;;;;;;4916374;29;20411;-79
2022/03/10 06:14:22;;;;;;;26.02;16.25;;;;;;;;;;4895323;29;20422;-79
2022/03/10 06:16:48;;;;;;;22.95;14.02;;;;;;;;;;4935646;29;20422;-79
2022/03/10 06:19:14;;;;;;;23.00;13.90;;;;;;;;;;4921292;29;20414;-80
2022/03/10 06:21:41;;;;;;;20.35;13.38;;;;;;;;;;4921952;29;20774;-79
2022/03/10 06:24:08;;;;;;;19.98;12.98;;;;;;;;;;4936915;28;20505;-79
2022/03/10 06:26:36;;;;;;;21.42;13.65;;;;;;;;;;4937344;29;20430;-76
2022/03/10 06:29:04;;;;;;;21.13;13.25;;;;;;;;;;4952817;28;20442;-76
2022/03/10 06:31:30;;;;;;;21.05;13.18;;;;;;;;;;4934350;28;20432;-78
2022/03/10 06:33:57;;;;;;;22.67;13.40;;;;;;;;;;4933779;29;20844;-78
2022/03/10 06:36:23;;;;;;;20.85;14.10;;;;;;;;;;4919754;29;20778;-79
2022/03/10 06:38:49;;;;;;;21.60;14.23;;;;;;;;;;4904349;29;20420;-79
2022/03/10 06:41:15;;;;;;;21.75;13.75;;;;;;;;;;4920627;29;20421;-78
2022/03/10 06:43:41;;;;;;;20.23;13.85;;;;;;;;;;4935818;29;20442;-78
2022/03/10 06:46:07;;;;;;;22.75;14.15;;;;;;;;;;4919153;29;20410;-78
2022/03/10 06:48:34;;;;;;;22.10;13.82;;;;;;;;;;4942599;28;20745;-78
2022/03/10 06:51:01;;;;;;;21.70;13.10;;;;;;;;;;4932536;29;20449;-78
2022/03/10 06:53:27;;;;;;;24.08;13.75;;;;;;;;;;4919700;29;20414;-78
2022/03/10 06:55:53;;;;;;;19.40;13.50;;;;;;;;;;4905735;29;20947;-76
2022/03/10 06:58:19;;;;;;;22.23;13.63;;;;;;;;;;4920274;29;20535;-76
2022/03/10 07:00:45;;;;;;;21.20;13.60;;;;;;;;;;4928932;29;20415;-77
2022/03/10 07:03:11;;;;;;;21.27;14.73;;;;;;;;;;4936128;29;20428;-77
2022/03/10 07:05:37;;;;;;;23.10;14.35;;;;;;;;;;4935857;29;20426;-77
2022/03/10 07:08:03;;;;;;;20.70;13.98;;;;;;;;;;4920128;29;20466;-77
2022/03/10 07:10:29;;;;;;;23.08;14.23;;;;;;;;;;4932568;29;20775;-76
2022/03/10 07:12:55;;;;;;;21.77;14.18;;;;;;;;;;4933109;28;20425;-77
2022/03/10 07:15:22;;;;;;;20.08;13.27;;;;;;;;;;4912059;29;20422;-77
2022/03/10 07:17:49;;;;;;;22.13;14.15;;;;;;;;;;4945693;28;20419;-77
2022/03/10 07:20:15;;;;;;;21.00;13.93;;;;;;;;;;4933142;29;20418;-76
2022/03/10 07:22:41;;;;;;;22.27;13.97;;;;;;;;;;4902587;29;20451;-76
2022/03/10 07:25:11;;;;;;;20.38;14.13;;;;;;;;;;4933932;29;20493;-77
2022/03/10 07:27:37;;;;;;;23.15;14.45;;;;;;;;;;4907898;29;21004;-77
2022/03/10 07:30:04;;;;;;;20.27;13.75;;;;;;;;;;4931452;29;20499;-78
2022/03/10 07:32:30;;;;;;;19.67;13.55;;;;;;;;;;4928516;29;20417;-80
2022/03/10 07:34:56;;;;;;;20.40;13.88;;;;;;;;;;4904903;29;20969;-78
2022/03/10 07:37:22;;;;;;;23.17;14.32;;;;;;;;;;4883198;29;20425;-78
2022/03/10 07:39:48;;;;;;;22.25;13.95;;;;;;;;;;4897091;29;20753;-78
2022/03/10 07:42:15;;;;;;;22.42;14.20;;;;;;;;;;4903186;29;20436;-78
2022/03/10 07:44:41;;;;;;;22.83;15.07;;;;;;;;;;4899894;29;20448;-77
2022/03/10 07:47:07;;;;;;;22.60;13.75;;;;;;;;;;4891422;29;20831;-78
2022/03/10 07:49:33;;;;;;;21.27;13.77;;;;;;;;;;4871692;29;20455;-77
2022/03/10 07:52:00;;;;;;;23.88;14.27;;;;;;;;;;4913642;29;20492;-77
2022/03/10 07:54:27;;;;;;;20.48;13.60;;;;;;;;;;4905124;29;20421;-77
2022/03/10 07:56:53;;;;;;;19.95;13.40;;;;;;;;;;4907581;29;20786;-78
2022/03/10 07:59:19;;;;;;;21.30;14.13;;;;;;;;;;4880409;29;20480;-77
2022/03/10 08:01:45;;;;;;;22.33;14.57;;;;;;;;;;4881924;29;20503;-75
2022/03/10 08:04:11;;;;;;;24.40;14.52;;;;;;;;;;4912120;29;20944;-75
2022/03/10 08:06:37;;;;;;;21.40;13.63;;;;;;;;;;4911973;29;20425;-76
2022/03/10 08:09:06;;;;;;;20.30;13.65;;;;;;;;;;4911678;29;20774;-76
2022/03/10 08:11:32;;;;;;;19.88;13.63;;;;;;;;;;4911274;29;20416;-76
2022/03/10 08:13:58;;;;;;;20.92;13.27;;;;;;;;;;4897514;29;20870;-76
2022/03/10 08:16:24;;;;;;;20.65;14.23;;;;;;;;;;4912405;29;20751;-76
2022/03/10 08:18:50;;;;;;;19.15;13.57;;;;;;;;;;4908258;29;20780;-76
2022/03/10 08:21:16;;;;;;;20.50;13.43;;;;;;;;;;4904064;29;20423;-76
2022/03/10 08:23:43;;;;;;;20.17;13.02;;;;;;;;;;4906565;29;20433;-76
2022/03/10 08:26:09;;;;;;;19.60;13.43;;;;;;;;;;4894449;29;20495;-76
2022/03/10 08:28:36;;;;;;;22.33;13.60;;;;;;;;;;4878621;29;20424;-76
2022/03/10 08:31:04;;;;;;;22.75;13.43;;;;;;;;;;4912130;29;20504;-77
2022/03/10 08:33:30;;;;;;;21.13;13.73;;;;;;;;;;4907258;29;20431;-77
2022/03/10 08:35:56;;;;;;;20.33;13.65;;;;;;;;;;4907736;29;20431;-77
2022/03/10 08:38:22;;;;;;;18.48;13.60;;;;;;;;;;4930872;29;20451;-76
2022/03/10 08:40:48;;;;;;;18.25;13.57;;;;;;;;;;4927056;29;20416;-76
2022/03/10 08:43:15;;;;;;;19.33;13.63;;;;;;;;;;4908179;29;20924;-76
2022/03/10 08:45:41;;;;;;;19.20;13.20;;;8.40;99.90;;;;;;4921633;29;20457;-76
2022/03/10 08:48:08;;;;;;;18.85;14.18;;;;;;;;;;4927332;29;20444;-76
2022/03/10 08:50:34;;;;;;;19.58;14.20;;;;;;;;;;4913025;29;20415;-76
2022/03/10 08:53:00;;;;;;;18.88;13.30;;;;;;;;;;4929932;29;20423;-77
2022/03/10 08:55:26;;;;;;;19.00;13.57;;;;;;;;;;4930174;29;20419;-77
2022/03/10 08:57:55;;;;;;;22.20;14.30;;;;;;;;;;4913700;29;20426;-76
2022/03/10 09:00:21;;;;;;;23.52;14.02;;;;;;;;;;4913575;29;20427;-76
2022/03/10 09:02:47;;;;;;;23.08;14.13;;;;;;;;;;4887492;29;20423;-77
2022/03/10 09:05:13;;;;;;;23.08;14.23;;;;;;;;;;4930288;29;20498;-77
2022/03/10 09:07:40;;;;;;;20.00;14.10;;;;;;;;;;4932152;29;20423;-77
2022/03/10 09:10:07;;;;;;;22.17;14.50;;;;;;;;;;4926423;29;20415;-77
2022/03/10 09:12:33;;;;;;;21.02;14.52;;;;;;;;;;4915261;29;20467;-76
2022/03/10 09:14:59;;;;;;;21.85;14.10;;;;;;;;;;4913633;29;20427;-77
2022/03/10 09:17:25;;;;;;;21.30;14.00;;;;;;;;;;4889366;29;20417;-77
2022/03/10 09:19:52;;;;;;;20.45;14.48;;;;;;;;;;4911449;29;20417;-76
2022/03/10 09:22:18;;;;;;;19.75;13.80;;;;;;;;;;4930705;29;20424;-77
2022/03/10 09:24:44;;;;;;;19.60;13.98;;;;;;;;;;4928846;29;20526;-76
2022/03/10 09:27:11;;;;;;;20.60;14.00;;;;;;;;;;4928097;29;20478;-76
2022/03/10 09:29:37;;;;;;;18.30;14.18;;;;;;;;;;4912555;29;21195;-77
2022/03/10 09:32:03;;;;;;;21.20;14.02;;;;;;;;;;4931875;29;20479;-76
2022/03/10 09:34:29;;;;;;;21.00;14.57;;;;;;;;;;4929960;29;20463;-77
2022/03/10 09:36:56;;;;;;;21.53;13.87;;;;;;;;;;4931354;29;20476;-77
2022/03/10 09:39:22;;;;;;;20.38;14.45;;;;;;;;;;4930169;29;20416;-76
2022/03/10 09:41:48;;;;;;;21.23;13.93;;;;;;;;;;4933821;29;20419;-76
2022/03/10 09:44:19;;;;;;;20.20;13.90;;;;;;;;;;4914430;29;20450;-77
2022/03/10 09:46:52;;;;;;;20.00;13.88;;;11.40;98.80;;;;;;4937967;29;20418;-77
2022/03/10 09:49:22;;;;;;;21.70;14.27;;;;;;;;;;4925527;29;20526;-77
2022/03/10 09:51:49;;;;;;;21.58;14.82;;;;;;;;;;4931386;29;20562;-76
2022/03/10 09:54:15;;;;;;;21.52;14.25;;;;;;;;;;4930376;29;20426;-76
2022/03/10 09:56:42;;;;;;;22.98;14.45;;;10.90;97.90;;;;;;4933359;29;20427;-77
2022/03/10 09:59:09;;;;;;;20.93;14.70;;;;;;;;;;4939258;29;20413;-76
2022/03/10 10:01:35;;;;;;;22.50;14.48;;;;;;;;;;4940751;29;20419;-77
2022/03/10 10:04:01;;;;;;;19.90;14.53;;;;;;;;;;4927433;29;20458;-77
2022/03/10 10:06:28;;;;;;;21.98;14.15;;;;;;;;;;4932250;29;20422;-77
2022/03/10 10:08:55;;;;;;;19.70;14.18;;;11.50;97.40;;;;;;4932755;29;20587;-77
2022/03/10 10:11:32;;;;;;;21.33;14.15;;;;;;;;;;4914195;29;20420;-77
2022/03/10 10:13:58;;;;;;;22.38;14.52;;;;;;;;;;4917454;29;20427;-77
2022/03/10 10:16:24;;;;;;;19.63;14.30;;;;;;;;;;4905021;29;20432;-77
2022/03/10 10:18:55;;;;;;;19.85;14.18;;;11.50;97.10;;;;;;4931673;29;20419;-77
2022/03/10 10:21:23;;;;;;;18.88;14.10;;;11.60;97.00;;;;;;4914987;29;20506;-77
2022/03/10 10:23:54;;;;;;;20.83;14.77;;;11.80;97.20;;;;;;4928999;29;20939;-77
2022/03/10 10:26:26;;;;;;;21.37;15.17;;;;;;;;;;4948312;28;20987;-77
2022/03/10 10:28:52;;;;;;;21.00;14.32;;;;;;;;;;4925384;29;20501;-77
2022/03/10 10:31:20;;;;;;;23.45;15.10;;;12.40;96.90;;;;;;4933458;29;20423;-77
2022/03/10 10:34:00;;;;;;;24.25;14.88;;;;;;;;;;4933073;29;20856;-77
2022/03/10 10:36:31;;;;;;;20.15;14.75;;;12.60;96.60;;;;;;4935751;29;20432;-77
2022/03/10 10:39:07;;;;;;;23.08;15.52;;;;;;;;;;4935345;29;20409;-77
2022/03/10 10:41:33;;;;;;;22.52;15.38;;;;;;;;;;4936009;29;20421;-77
2022/03/10 10:44:05;;;;;;;23.60;16.25;;;12.70;96.00;;;;;;4919626;29;20496;-77
2022/03/10 10:46:32;;;;;;;20.05;15.00;;;;;;;;;;4917059;29;20435;-78
2022/03/10 10:49:00;;;;;;;22.05;15.38;;;;;;;;;;4917791;29;20420;-77
2022/03/10 10:51:26;;;;;;;22.30;15.73;;;;;;;;;;4935636;29;20940;-77
2022/03/10 10:53:52;;;;;;;22.42;15.10;;;;;;;;;;4935893;29;20418;-76
2022/03/10 10:56:19;;;;;;;19.88;14.65;;;;;;;;;;4936248;29;20500;-76
2022/03/10 10:58:46;;;;;;;21.08;15.07;;;13.00;95.80;;;;;;4935918;29;20917;-77
2022/03/10 11:01:26;;;;;;;20.15;15.20;;;;;;;;;;4921153;28;20413;-78
2022/03/10 11:03:52;;;;;;;21.33;15.43;;;;;;;;;;4936096;29;20437;-77
2022/03/10 11:06:20;;;;;;;20.67;14.93;;;13.40;95.40;;;;;;4911715;29;20417;-78
2022/03/10 11:08:46;;;;;;;23.42;15.70;;;;;;;;;;4934842;28;20901;-78
2022/03/10 11:11:12;;;;;;;22.60;15.52;;;;;;;;;;4912679;29;20417;-77
2022/03/10 11:13:38;;;;;;;24.15;15.60;;;;;;;;;;4920035;28;20416;-78
2022/03/10 11:16:07;;;;;;;21.90;16.38;;;;;;;;;;4926885;29;20415;-77
2022/03/10 11:18:33;;;;;;;24.00;17.30;;;;;;;;;;4931860;29;20410;-77
2022/03/10 11:21:33;;;;;;;25.02;17.05;;;13.10;95.60;;;;;;4919309;29;20941;-77
2022/03/10 11:24:17;;;;;;;25.27;15.85;;;;;;;;;;4935442;28;20438;-77
2022/03/10 11:26:56;;;;;;;25.60;17.35;;;;;;;;;;4919211;29;20414;-77
2022/03/10 11:29:24;;;;;;;23.63;17.30;;;13.40;94.70;;;;;;4932798;29;20457;-78
2022/03/10 11:31:52;;;;;;;24.73;16.98;;;;;;;;;;4914993;29;20409;-78
2022/03/10 11:34:46;;;;;;;24.10;17.05;;;13.80;94.60;;;;;;4935482;29;20834;-77
2022/03/10 11:37:12;;;;;;;24.17;16.58;;;;;;;;;;4951602;29;20489;-77
2022/03/10 11:39:55;;;;;;;23.55;16.58;;;;;;;;;;4932998;29;20422;-77
2022/03/10 11:42:28;;;;;;;22.90;16.00;;;14.00;95.10;;;;;;4914059;28;20432;-77
2022/03/10 11:45:13;;;;;;;24.55;17.25;;;;;;;;;;4918887;29;20429;-77
2022/03/10 11:47:40;;;;;;;27.75;17.25;;;;;;;;;;4940981;29;20441;-77
2022/03/10 11:50:21;;;;;;;25.15;16.75;;;14.20;94.00;;;;;;4933920;29;20985;-77
2022/03/10 11:53:13;;;;;;;25.05;16.77;;;14.40;94.30;;;;;;4916987;29;20428;-78
2022/03/10 11:55:43;;;;;;;23.58;16.33;;;;;;;;;;4898321;29;20751;-78
2022/03/10 11:58:13;;;;;;;23.35;16.90;;;;;;;;;;4917006;29;20425;-77
2022/03/10 12:00:43;;;;;;;23.98;16.88;;;;;;;;;;4919927;29;20410;-77
2022/03/10 12:03:10;;;;;;;22.75;16.70;;;14.60;93.50;;;;;;4913954;29;20919;-78
2022/03/10 12:05:55;;;;;;;24.25;16.67;;;14.70;93.30;;;;;;4918825;28;20512;-77
2022/03/10 12:08:21;;;;;;;26.03;17.60;;;;;;;;;;4922779;29;20410;-77
2022/03/10 12:10:48;;;;;;;25.15;17.23;;;;;;;;;;4915003;29;20415;-77
2022/03/10 12:13:24;;;;;;;23.57;16.80;;;;;;;;;;4933917;29;20511;-78
2022/03/10 12:15:50;;;;;;;25.30;17.33;;;14.60;92.90;;;;;;4935887;29;20806;-77
2022/03/10 12:18:23;;;;;;;22.83;16.75;;;14.70;93.40;;;;;;4914233;29;21142;-77
2022/03/10 12:20:53;;;;;;;23.63;16.63;;;14.60;93.30;;;;;;4918447;29;20422;-77
2022/03/10 12:23:22;;;;;;;30.05;16.83;;;14.80;92.60;;;;;;4935776;29;20925;-78
2022/03/10 12:25:54;;;;;;;23.67;16.92;;;;;;;;;;4935857;29;20433;-78
2022/03/10 12:28:25;;;;;;;21.98;16.55;;;;;;;;;;4947823;28;20422;-79
2022/03/10 12:31:07;;;;;;;23.38;17.25;;;15.00;92.80;;;;;;4934085;29;20438;-77
2022/03/10 12:33:34;;;;;;;24.27;16.60;;;14.90;92.80;;;;;;4932246;29;20560;-80
2022/03/10 12:36:01;;;;;;;26.60;16.67;;;;;;;;;;4916846;29;20830;-81
2022/03/10 12:38:37;;;;;;;24.92;16.23;;;;;;;;;;4916546;29;20917;-81
2022/03/10 12:41:03;;;;;;;23.20;16.45;;;;;;;;;;4932866;28;20426;-85
2022/03/10 12:43:30;;;;;;;24.33;16.83;;;;;;;;;;4920005;29;20418;-81
2022/03/10 12:45:56;;;;;;;24.27;16.77;;;;;;;;;;4902158;29;20518;-80
2022/03/10 12:48:31;;;;;;;25.73;17.05;;;14.90;92.00;;;;;;4922608;29;20500;-81
2022/03/10 12:50:57;;;;;;;26.25;17.05;;;;;;;;;;4922573;29;20415;-82
2022/03/10 12:53:23;;;;;;;22.30;16.05;;;;;;;;;;4932400;29;20461;-81
2022/03/10 12:55:56;;;;;;;23.00;16.73;;;;;;;;;;4918414;29;20459;-81
2022/03/10 12:58:29;;;;;;;21.95;16.27;;;;;;;;;;4908331;29;20939;-81
2022/03/10 13:01:04;;;;;;;22.67;16.15;;;;;;;;;;4904575;28;20441;-81
2022/03/10 13:03:51;;;;;;;22.58;16.40;;;15.00;91.90;;;;;;4912535;29;20774;-80
2022/03/10 13:06:18;;;;;;;23.33;16.65;;;;;;;;;;4912886;28;20414;-80
2022/03/10 13:08:55;;;;;;;21.30;15.82;;;15.10;92.30;;;;;;4915457;28;20425;-80
2022/03/10 13:11:32;;;;;;;21.10;15.93;;;15.50;92.30;;;;;;4936323;29;20410;-81
2022/03/10 13:14:07;;;;;;;24.67;16.23;;;;;;;;;;4928051;29;20465;-80
2022/03/10 13:16:46;;;;;;;21.52;16.50;;;15.40;91.70;;;;;;4935028;29;20726;-79
2022/03/10 13:19:27;;;;;;;20.80;16.10;;;15.20;92.10;;;;;;4920743;29;20410;-80
2022/03/10 13:21:56;;;;;;;21.67;15.35;;;15.50;91.60;;;;;;4920706;29;20425;-80
2022/03/10 13:24:37;;;;;;;22.08;15.85;;;;;;;;;;4937635;29;20943;-80
2022/03/10 13:27:04;;;;;;;22.60;16.25;;;;;;;;;;4935770;28;20425;-79
2022/03/10 13:29:30;;;;;;;20.90;15.65;;;;;;;;;;4939371;28;20414;-79
2022/03/10 13:31:57;;;;;;;23.83;15.87;;;15.10;92.30;;;;;;4932208;29;20412;-80
2022/03/10 13:34:24;;;;;;;20.92;15.70;;;;;;;;;;4925460;29;20429;-80
2022/03/10 13:36:51;;;;;;;22.02;15.95;;;15.10;92.70;;;;;;4934804;29;20437;-79
2022/03/10 13:39:21;;;;;;;23.50;16.33;;;14.90;92.30;;;;;;4923385;29;20434;-80
2022/03/10 13:41:47;;;;;;;23.93;15.67;;;;;;;;;;4929985;29;20503;-80
2022/03/10 13:44:17;;;;;;;21.70;15.55;;;15.20;92.40;;;;;;4932093;29;20469;-80
2022/03/10 13:46:43;;;;;;;24.52;16.17;;;;;;;;;;4937971;29;20454;-79
2022/03/10 13:49:22;;;;;;;21.90;15.50;;;15.30;92.80;;;;;;4933766;29;20412;-78
2022/03/10 13:51:49;;;;;;;22.25;15.63;;;;;;;;;;4904087;29;20415;-82
2022/03/10 13:54:16;;;;;;;24.13;15.20;;;;;;;;;;4936191;28;20418;-79
2022/03/10 13:56:43;;;;;;;24.08;16.48;;;;;;;;;;4921613;28;20420;-78
2022/03/10 13:59:10;;;;;;;24.58;16.20;;;15.20;92.60;;;;;;4918648;29;20425;-80
2022/03/10 14:01:37;;;;;;;21.98;15.65;;;;;;;;;;4909132;29;20417;-78
2022/03/10 14:04:15;;;;;;;24.17;15.00;;;;;;;;;;4935192;29;20448;-80
2022/03/10 14:06:48;;;;;;;21.75;15.57;;;15.10;92.90;;;;;;4917428;29;20412;-79
2022/03/10 14:09:18;;;;;;;21.87;15.47;;;;;;;;;;4921516;29;20410;-79
2022/03/10 14:11:45;;;;;;;21.75;15.73;;;;;;;;;;4933911;29;20437;-79